METAR Formatted Surface Weather Observation
Issued by NWS

Home | Current Version | Previous Version | Text Only | Print | Product List | Glossary On
Versions: 1 2 3 4 5 6 7
000
SAUS44 KBMX 300254
MTRHEY
METAR KHEY 300253Z AUTO 31004KT 10SM CLR 19/11 A3006 RMK AO2 SLP067
T01940106 51020



USA.gov is the U.S. government's official web portal to all federal, state and local government web resources and services.